Time;durP1;ratioP1;P1;durP2;ratioP2;P2;SDS_P1;SDS_P2;PMS_P1;PMS_P2;Temp;Humidity;BMP_temperature;BMP_pressure;BME280_temperature;BME280_humidity;BME280_pressure;Samples;Min_cycle;Max_cycle;Signal;HPM_P1;HPM_P2
2021/12/26 00:00:42;;;;;;;7.70;3.10;;;-0.80;99.90;;;;;;5085649;28;20561;-67
2021/12/26 00:03:09;;;;;;;9.03;3.23;;;-0.80;99.90;;;;;;5085603;28;20506;-67
2021/12/26 00:05:38;;;;;;;4.50;2.60;;;-0.80;99.90;;;;;;5085595;28;20439;-68
2021/12/26 00:08:05;;;;;;;4.57;2.73;;;-0.80;99.90;;;;;;5084581;28;20463;-67
2021/12/26 00:10:32;;;;;;;4.97;2.10;;;-0.80;99.90;;;;;;5084857;28;20447;-67
2021/12/26 00:12:59;;;;;;;2.97;2.13;;;-0.90;99.90;;;;;;5085371;28;20467;-67
2021/12/26 00:15:26;;;;;;;3.93;2.77;;;-0.90;99.90;;;;;;5085081;28;20506;-67
2021/12/26 00:17:53;;;;;;;2.80;2.23;;;-0.80;99.90;;;;;;5084963;28;20507;-67
2021/12/26 00:20:21;;;;;;;4.57;2.57;;;-0.90;99.90;;;;;;5085504;28;20528;-67
2021/12/26 00:22:50;;;;;;;3.07;2.03;;;-0.90;99.90;;;;;;5084361;28;20623;-67
2021/12/26 00:25:17;;;;;;;2.73;2.00;;;-0.90;99.90;;;;;;5084113;28;20518;-68
2021/12/26 00:27:44;;;;;;;4.40;2.00;;;-0.90;99.90;;;;;;5084875;28;20452;-67
2021/12/26 00:30:17;;;;;;;4.27;2.03;;;-0.90;99.90;;;;;;5085360;28;20580;-67
2021/12/26 00:32:44;;;;;;;3.90;2.13;;;-0.90;99.90;;;;;;5084983;28;20486;-67
2021/12/26 00:35:12;;;;;;;4.97;2.50;;;-1.00;99.90;;;;;;5084915;28;20479;-67
2021/12/26 00:37:39;;;;;;;2.70;1.87;;;-1.00;99.90;;;;;;5068373;28;20574;-65
2021/12/26 00:40:10;;;;;;;4.07;1.97;;;-1.00;99.90;;;;;;5063893;28;20482;-67
2021/12/26 00:42:37;;;;;;;3.73;2.37;;;-1.10;99.90;;;;;;5064366;28;20504;-67
2021/12/26 00:45:05;;;;;;;4.20;2.80;;;-1.10;99.90;;;;;;5081449;28;20991;-67
2021/12/26 00:47:33;;;;;;;2.33;1.87;;;-1.00;99.90;;;;;;5084973;28;20448;-67
2021/12/26 00:50:00;;;;;;;4.37;2.97;;;-0.90;99.90;;;;;;5084668;28;20511;-68
2021/12/26 00:52:27;;;;;;;2.50;1.80;;;-1.10;99.90;;;;;;5084936;28;20469;-67
2021/12/26 00:54:54;;;;;;;3.00;2.10;;;-1.20;99.90;;;;;;5082933;28;20554;-67
2021/12/26 00:57:23;;;;;;;3.43;2.40;;;-1.20;99.90;;;;;;5085090;28;20471;-67
2021/12/26 00:59:49;;;;;;;5.47;2.70;;;-1.20;99.90;;;;;;5084844;28;20499;-67
2021/12/26 01:02:16;;;;;;;4.63;2.60;;;-1.20;99.90;;;;;;5085012;28;20470;-67
2021/12/26 01:04:43;;;;;;;5.03;3.00;;;-1.20;99.90;;;;;;5084448;28;20506;-67
2021/12/26 01:07:20;;;;;;;4.93;3.10;;;-1.10;99.90;;;;;;5084852;28;20479;-67
2021/12/26 01:09:51;;;;;;;4.03;2.37;;;-1.10;99.90;;;;;;5083663;28;20466;-67
2021/12/26 01:12:19;;;;;;;4.47;2.53;;;-1.00;99.90;;;;;;5084754;28;20874;-67
2021/12/26 01:14:52;;;;;;;3.90;2.23;;;-1.10;99.90;;;;;;5084400;28;20545;-68
2021/12/26 01:17:22;;;;;;;3.43;2.20;;;-1.00;99.90;;;;;;5084604;28;20838;-67
2021/12/26 01:19:52;;;;;;;4.30;2.23;;;-1.00;99.90;;;;;;5084383;28;20917;-67
2021/12/26 01:22:21;;;;;;;4.03;2.53;;;-1.00;99.90;;;;;;5084768;28;20447;-68
2021/12/26 01:24:55;;;;;;;4.97;2.80;;;-1.00;99.90;;;;;;5082870;28;20530;-67
2021/12/26 01:27:22;;;;;;;5.80;3.03;;;-1.00;99.90;;;;;;5084388;28;20507;-67
2021/12/26 01:29:51;;;;;;;4.43;3.00;;;-1.00;99.90;;;;;;5084374;28;20875;-67
2021/12/26 01:32:18;;;;;;;3.47;2.67;;;-1.00;99.90;;;;;;5084612;28;20990;-67
2021/12/26 01:34:45;;;;;;;4.07;2.33;;;-1.00;99.90;;;;;;5084334;28;20495;-67
2021/12/26 01:37:12;;;;;;;4.80;2.27;;;-1.00;99.90;;;;;;5084143;28;20510;-66
2021/12/26 01:39:39;;;;;;;9.07;2.90;;;-1.00;99.90;;;;;;5083441;28;20431;-67
2021/12/26 01:42:09;;;;;;;3.40;2.33;;;-1.00;99.90;;;;;;5084627;28;20515;-67
2021/12/26 01:44:36;;;;;;;4.80;2.57;;;-1.10;99.90;;;;;;5084340;28;20439;-68
2021/12/26 01:47:05;;;;;;;4.30;1.63;;;-1.10;99.90;;;;;;5084654;28;20533;-67
2021/12/26 01:49:33;;;;;;;4.33;2.67;;;-1.20;99.90;;;;;;5084777;28;20478;-68
2021/12/26 01:52:04;;;;;;;4.70;2.53;;;-1.20;99.90;;;;;;5085154;28;20507;-67
2021/12/26 01:54:37;;;;;;;4.20;2.30;;;-1.20;99.90;;;;;;5086254;28;20479;-67
2021/12/26 01:57:07;;;;;;;4.20;2.43;;;-1.20;99.90;;;;;;5089128;28;20497;-67
2021/12/26 01:59:34;;;;;;;5.00;2.70;;;-1.20;99.90;;;;;;5088513;28;20511;-67
2021/12/26 02:02:01;;;;;;;3.50;2.30;;;-1.20;99.90;;;;;;5088799;28;20499;-67
2021/12/26 02:04:30;;;;;;;5.77;2.47;;;-1.30;99.90;;;;;;5088380;28;20440;-67
2021/12/26 02:06:58;;;;;;;4.60;2.37;;;-1.20;99.90;;;;;;5088683;28;20485;-67
2021/12/26 02:09:25;;;;;;;4.17;2.43;;;-1.20;99.90;;;;;;5087579;28;20520;-67
2021/12/26 02:11:52;;;;;;;4.13;2.13;;;-1.20;99.90;;;;;;5088071;28;20510;-67
2021/12/26 02:14:19;;;;;;;4.87;2.53;;;-1.10;99.90;;;;;;5087940;28;20443;-67
2021/12/26 02:16:46;;;;;;;4.70;2.80;;;-1.10;99.90;;;;;;5087654;28;20511;-67
2021/12/26 02:19:13;;;;;;;8.20;2.83;;;-1.10;99.90;;;;;;5087468;28;20515;-67
2021/12/26 02:24:27;;;;;;;4.20;2.73;;;-1.10;99.90;;;;;;5084240;28;20474;-67
2021/12/26 02:29:39;;;;;;;6.07;3.07;;;-1.20;99.90;;;;;;5087370;28;20427;-67
2021/12/26 02:32:07;;;;;;;5.00;2.67;;;-1.10;99.90;;;;;;5087500;28;20531;-68
2021/12/26 02:34:34;;;;;;;3.97;2.37;;;-1.10;99.90;;;;;;5087021;28;20547;-67
2021/12/26 02:37:03;;;;;;;4.93;2.30;;;-1.10;99.90;;;;;;5087566;28;20471;-67
2021/12/26 02:39:32;;;;;;;3.53;1.90;;;-1.10;99.90;;;;;;5086049;28;20479;-66
2021/12/26 02:41:59;;;;;;;7.03;3.37;;;-1.10;99.90;;;;;;5087037;28;20454;-67
2021/12/26 02:44:26;;;;;;;3.53;2.40;;;-1.00;99.90;;;;;;5086835;28;20480;-67
2021/12/26 02:46:52;;;;;;;4.23;2.17;;;-1.00;99.90;;;;;;5087568;28;20467;-67
2021/12/26 02:49:23;;;;;;;4.50;2.80;;;-1.10;99.90;;;;;;5087154;28;20447;-67
2021/12/26 02:51:50;;;;;;;7.73;2.27;;;-1.10;99.90;;;;;;5087335;28;20442;-67
2021/12/26 02:54:19;;;;;;;4.47;2.83;;;-1.10;99.90;;;;;;5085663;28;20454;-67
2021/12/26 02:56:46;;;;;;;5.50;2.83;;;-1.10;99.90;;;;;;5086670;28;20449;-67
2021/12/26 02:59:13;;;;;;;4.10;2.63;;;-1.10;99.90;;;;;;5086703;28;20479;-67
2021/12/26 03:01:39;;;;;;;4.63;2.40;;;-1.10;99.90;;;;;;5087296;28;20483;-67
2021/12/26 03:04:08;;;;;;;3.37;2.60;;;-1.20;99.90;;;;;;5086533;28;20526;-67
2021/12/26 03:06:42;;;;;;;3.83;2.20;;;-1.20;99.90;;;;;;5086215;28;20898;-66
2021/12/26 03:09:09;;;;;;;4.23;2.50;;;-1.20;99.90;;;;;;5086027;28;20447;-67
2021/12/26 03:11:38;;;;;;;4.80;2.87;;;-1.20;99.90;;;;;;5086255;28;20515;-67
2021/12/26 03:14:05;;;;;;;4.43;2.70;;;-1.20;99.90;;;;;;5086370;28;20446;-67
2021/12/26 03:16:32;;;;;;;4.10;2.47;;;-1.20;99.90;;;;;;5086460;28;20493;-67
2021/12/26 03:19:00;;;;;;;3.67;2.47;;;-1.20;99.90;;;;;;5086251;28;20462;-67
2021/12/26 03:21:28;;;;;;;5.23;3.17;;;-1.10;99.90;;;;;;5086765;28;20442;-67
2021/12/26 03:23:55;;;;;;;3.90;2.13;;;-1.10;99.90;;;;;;5084978;28;20477;-66
2021/12/26 03:26:22;;;;;;;6.23;2.57;;;-1.10;99.90;;;;;;5085903;28;20467;-67
2021/12/26 03:28:50;;;;;;;4.47;2.47;;;-1.10;99.90;;;;;;5086133;28;20944;-67
2021/12/26 03:31:16;;;;;;;5.33;2.70;;;-1.10;99.90;;;;;;5086459;28;20597;-67
2021/12/26 03:33:43;;;;;;;3.30;2.17;;;-1.10;99.90;;;;;;5086059;28;20942;-67
2021/12/26 03:36:10;;;;;;;30.50;9.17;;;-1.10;99.90;;;;;;5086070;28;20542;-67
2021/12/26 03:38:37;;;;;;;12.17;4.17;;;-1.20;99.90;;;;;;5084823;28;20562;-67
2021/12/26 03:41:04;;;;;;;7.80;3.83;;;-1.20;99.90;;;;;;5085437;28;20546;-68
2021/12/26 03:43:31;;;;;;;6.17;3.77;;;-1.20;99.90;;;;;;5086091;28;20448;-67
2021/12/26 03:45:59;;;;;;;7.03;3.37;;;-1.20;99.90;;;;;;5085728;28;20443;-67
2021/12/26 03:48:27;;;;;;;5.47;2.90;;;-1.20;99.90;;;;;;5085805;28;20486;-67
2021/12/26 03:50:55;;;;;;;4.80;2.47;;;-1.20;99.90;;;;;;5086079;28;20526;-67
2021/12/26 03:53:22;;;;;;;6.73;2.17;;;-1.20;99.90;;;;;;5084763;28;20466;-66
2021/12/26 03:55:49;;;;;;;5.40;2.73;;;-1.20;99.90;;;;;;5084980;28;21061;-66
2021/12/26 03:58:17;;;;;;;3.23;2.10;;;-1.10;99.90;;;;;;5085539;28;20457;-67
2021/12/26 04:00:46;;;;;;;6.33;3.20;;;-1.20;99.90;;;;;;5085947;28;20439;-67
2021/12/26 04:03:14;;;;;;;5.50;2.33;;;-1.10;99.90;;;;;;5085468;28;20894;-67
2021/12/26 04:05:41;;;;;;;6.10;2.90;;;-1.10;99.90;;;;;;5085881;28;20467;-67
2021/12/26 04:08:08;;;;;;;5.97;3.40;;;-1.10;99.90;;;;;;5084600;28;20455;-67
2021/12/26 04:10:34;;;;;;;4.20;2.40;;;-1.10;99.90;;;;;;5085078;28;20448;-67
2021/12/26 04:13:01;;;;;;;4.60;2.80;;;-1.10;99.90;;;;;;5085470;28;20507;-67
2021/12/26 04:15:28;;;;;;;4.77;2.63;;;-1.10;99.90;;;;;;5084940;28;20824;-67
2021/12/26 04:17:57;;;;;;;5.63;2.60;;;-1.10;99.90;;;;;;5084419;28;20439;-67
2021/12/26 04:20:26;;;;;;;6.13;3.00;;;-1.20;99.90;;;;;;5085502;28;20458;-67
2021/12/26 04:22:53;;;;;;;5.30;2.50;;;-1.20;99.90;;;;;;5084544;28;20443;-67
2021/12/26 04:25:20;;;;;;;5.07;2.53;;;-1.20;99.90;;;;;;5084347;28;20453;-67
2021/12/26 04:27:48;;;;;;;4.27;2.40;;;-1.20;99.90;;;;;;5085046;28;20507;-67
2021/12/26 04:30:16;;;;;;;4.70;2.60;;;-1.20;99.90;;;;;;5085344;28;20443;-68
2021/12/26 04:32:43;;;;;;;4.73;2.60;;;-1.20;99.90;;;;;;5084305;28;20503;-66
2021/12/26 04:35:10;;;;;;;4.47;2.07;;;-1.20;99.90;;;;;;5085061;28;20489;-67
2021/12/26 04:37:39;;;;;;;4.20;2.63;;;-1.20;99.90;;;;;;5084764;28;20455;-67
2021/12/26 04:40:08;;;;;;;6.17;2.33;;;-1.20;99.90;;;;;;5084157;28;20550;-67
2021/12/26 04:42:37;;;;;;;3.03;1.93;;;-1.10;99.90;;;;;;5085156;28;20470;-67
2021/12/26 04:45:05;;;;;;;4.10;2.50;;;-1.20;99.90;;;;;;5084848;28;20459;-67
2021/12/26 04:47:32;;;;;;;4.60;2.50;;;-1.20;99.90;;;;;;5084983;28;20446;-67
2021/12/26 04:49:59;;;;;;;3.53;2.57;;;-1.20;99.90;;;;;;5084771;28;20474;-67
2021/12/26 04:52:26;;;;;;;4.83;2.77;;;-1.10;99.90;;;;;;5084992;28;20451;-66
2021/12/26 04:54:54;;;;;;;4.93;2.50;;;-1.10;99.90;;;;;;5083027;28;20516;-67
2021/12/26 04:57:21;;;;;;;4.57;2.43;;;-1.10;99.90;;;;;;5084913;28;20478;-67
2021/12/26 04:59:47;;;;;;;3.23;1.73;;;-1.10;99.90;;;;;;5084492;28;20508;-67
2021/12/26 05:02:14;;;;;;;5.23;2.53;;;-1.20;99.90;;;;;;5084934;28;20518;-66
2021/12/26 05:04:42;;;;;;;3.83;2.43;;;-1.20;99.90;;;;;;5084645;28;20482;-67
2021/12/26 05:07:09;;;;;;;5.07;2.53;;;-1.20;99.90;;;;;;5085038;28;20435;-67
2021/12/26 05:09:36;;;;;;;1.73;1.63;;;-1.20;99.90;;;;;;5083807;28;20514;-67
2021/12/26 05:12:05;;;;;;;4.63;2.23;;;-1.30;99.90;;;;;;5084280;28;20882;-67
2021/12/26 05:14:32;;;;;;;4.13;2.73;;;-1.30;99.90;;;;;;5084363;28;20526;-67
2021/12/26 05:16:59;;;;;;;4.00;2.47;;;-1.20;99.90;;;;;;5084610;28;20510;-67
2021/12/26 05:19:25;;;;;;;3.90;1.93;;;-1.20;99.90;;;;;;5084344;28;20475;-68
2021/12/26 05:21:52;;;;;;;3.87;2.37;;;-1.20;99.90;;;;;;5084795;28;20503;-67
2021/12/26 05:24:19;;;;;;;8.10;3.27;;;-1.20;99.90;;;;;;5083284;28;20471;-67
2021/12/26 05:26:46;;;;;;;7.90;2.43;;;-1.20;99.90;;;;;;5084072;28;20941;-68
2021/12/26 05:29:14;;;;;;;4.80;2.47;;;-1.30;99.90;;;;;;5086750;28;20519;-67
2021/12/26 05:31:41;;;;;;;6.60;2.77;;;-1.30;99.90;;;;;;5088729;28;20474;-68
2021/12/26 05:34:08;;;;;;;4.67;2.27;;;-1.30;99.90;;;;;;5088073;28;20519;-66
2021/12/26 05:36:34;;;;;;;4.63;2.33;;;-1.30;99.90;;;;;;5088639;28;21310;-67
2021/12/26 05:39:01;;;;;;;2.50;1.70;;;-1.30;99.90;;;;;;5087389;28;20479;-67
2021/12/26 05:41:28;;;;;;;3.30;2.37;;;-1.20;99.90;;;;;;5087932;28;20483;-67
2021/12/26 05:43:55;;;;;;;3.77;2.23;;;-1.20;99.90;;;;;;5087950;28;20870;-67
2021/12/26 05:46:23;;;;;;;4.43;2.70;;;-1.20;99.90;;;;;;5088256;28;20538;-67
2021/12/26 05:48:50;;;;;;;4.10;2.33;;;-1.30;99.90;;;;;;5087975;28;20511;-67
2021/12/26 05:51:16;;;;;;;3.33;2.10;;;-1.30;99.90;;;;;;5088410;28;20519;-67
2021/12/26 05:53:43;;;;;;;5.43;2.57;;;-1.40;99.90;;;;;;5086889;28;20457;-67
2021/12/26 05:56:10;;;;;;;2.80;2.07;;;-1.40;99.90;;;;;;5087460;28;20483;-67
2021/12/26 05:58:37;;;;;;;6.73;2.07;;;-1.40;99.90;;;;;;5087766;28;20447;-67
2021/12/26 06:01:04;;;;;;;5.93;2.53;;;-1.40;99.90;;;;;;5088171;28;21001;-67
2021/12/26 06:03:32;;;;;;;3.63;2.00;;;-1.30;99.90;;;;;;5088011;28;20471;-67
2021/12/26 06:05:59;;;;;;;6.57;3.00;;;-1.30;99.90;;;;;;5087816;28;20443;-67
2021/12/26 06:08:26;;;;;;;4.37;2.73;;;-1.30;99.90;;;;;;5087012;28;20530;-67
2021/12/26 06:10:53;;;;;;;4.87;2.83;;;-1.30;99.90;;;;;;5087434;28;20534;-67
2021/12/26 06:13:19;;;;;;;6.37;3.47;;;-1.30;99.90;;;;;;5087924;28;20509;-67
2021/12/26 06:15:46;;;;;;;4.93;2.77;;;-1.30;99.90;;;;;;5087538;28;20542;-67
2021/12/26 06:18:13;;;;;;;2.97;2.13;;;-1.30;99.90;;;;;;5087427;28;20471;-67
2021/12/26 06:20:41;;;;;;;4.67;2.50;;;-1.30;99.90;;;;;;5086272;28;20439;-66
2021/12/26 06:23:09;;;;;;;4.27;2.27;;;-1.30;99.90;;;;;;5086251;28;20838;-66
2021/12/26 06:25:36;;;;;;;4.33;2.57;;;-1.40;99.90;;;;;;5086203;28;20517;-66
2021/12/26 06:28:03;;;;;;;4.87;2.23;;;-1.40;99.90;;;;;;5086830;28;20443;-66
2021/12/26 06:30:30;;;;;;;3.97;2.30;;;-1.50;99.90;;;;;;5086877;28;20431;-67
2021/12/26 06:32:57;;;;;;;3.87;2.50;;;-1.40;99.90;;;;;;5086901;28;20450;-67
2021/12/26 06:35:23;;;;;;;3.13;2.40;;;-1.40;99.90;;;;;;5085523;28;20471;-65
2021/12/26 06:37:52;;;;;;;6.20;2.40;;;-1.40;99.90;;;;;;5085599;28;20711;-67
2021/12/26 06:40:19;;;;;;;4.90;2.60;;;-1.40;99.90;;;;;;5084967;28;20443;-66
2021/12/26 06:42:59;;;;;;;5.97;2.87;;;-1.30;99.90;;;;;;5086170;28;20473;-66
2021/12/26 06:45:26;;;;;;;4.17;1.83;;;-1.30;99.90;;;;;;5086160;28;20451;-66
2021/12/26 06:47:56;;;;;;;4.83;2.57;;;-1.30;99.90;;;;;;5086181;28;20471;-67
2021/12/26 06:50:23;;;;;;;5.93;3.00;;;-1.40;99.90;;;;;;5086331;28;20470;-66
2021/12/26 06:52:51;;;;;;;5.10;2.53;;;-1.50;99.90;;;;;;5085554;28;20427;-66
2021/12/26 06:55:18;;;;;;;6.10;2.83;;;-1.40;99.90;;;;;;5084978;28;20470;-66
2021/12/26 06:57:45;;;;;;;4.23;2.53;;;-1.40;99.90;;;;;;5085831;28;20550;-65
2021/12/26 07:00:15;;;;;;;5.40;2.80;;;-1.40;99.90;;;;;;5086513;28;20459;-67
2021/12/26 07:02:42;;;;;;;5.53;2.87;;;-1.40;99.90;;;;;;5086004;28;20462;-66
2021/12/26 07:05:12;;;;;;;3.37;2.20;;;-1.40;99.90;;;;;;5086785;28;20444;-66
2021/12/26 07:07:39;;;;;;;3.17;1.90;;;-1.50;99.90;;;;;;5086775;28;20439;-66
2021/12/26 07:10:09;;;;;;;4.33;2.80;;;-1.50;99.90;;;;;;5085526;28;21051;-65
2021/12/26 07:12:36;;;;;;;3.27;1.50;;;-1.50;99.90;;;;;;5086238;28;20424;-65
2021/12/26 07:15:03;;;;;;;7.33;3.57;;;-1.50;99.90;;;;;;5086029;28;20440;-66
2021/12/26 07:17:30;;;;;;;3.70;2.50;;;-1.50;99.90;;;;;;5086153;28;20475;-66
2021/12/26 07:19:57;;;;;;;6.17;2.50;;;-1.50;99.90;;;;;;5086034;28;20444;-65
2021/12/26 07:22:24;;;;;;;4.67;1.93;;;-1.50;99.90;;;;;;5085975;28;20435;-65
2021/12/26 07:24:51;;;;;;;4.03;2.43;;;-1.50;99.90;;;;;;5084614;28;20471;-69
2021/12/26 07:27:19;;;;;;;4.27;2.27;;;-1.50;99.90;;;;;;5085425;28;20446;-70
2021/12/26 07:29:46;;;;;;;5.73;3.17;;;-1.50;99.90;;;;;;5085510;28;20507;-66
2021/12/26 07:32:13;;;;;;;5.17;2.93;;;-1.50;99.90;;;;;;5085941;28;20463;-73
2021/12/26 07:34:40;;;;;;;2.17;1.93;;;-1.60;99.90;;;;;;5085465;28;20458;-68
2021/12/26 07:37:08;;;;;;;3.27;2.00;;;-1.50;99.90;;;;;;5084890;28;20467;-69
2021/12/26 07:39:35;;;;;;;3.43;2.10;;;-1.50;99.90;;;;;;5084148;28;20626;-68
2021/12/26 07:42:03;;;;;;;5.77;2.43;;;-1.40;99.90;;;;;;5084715;28;20502;-69
2021/12/26 07:44:31;;;;;;;5.57;2.60;;;-1.40;99.90;;;;;;5083439;28;20542;-69
2021/12/26 07:46:58;;;;;;;3.70;2.40;;;-1.40;99.90;;;;;;5085629;28;20527;-69
2021/12/26 07:49:27;;;;;;;4.60;2.63;;;-1.40;99.90;;;;;;5084818;28;20435;-66
2021/12/26 07:51:54;;;;;;;3.57;2.20;;;-1.40;99.90;;;;;;5085609;28;20443;-67
2021/12/26 07:54:23;;;;;;;4.83;2.73;;;-1.30;99.90;;;;;;5083178;28;20471;-65
2021/12/26 07:56:49;;;;;;;4.67;2.27;;;-1.30;99.90;;;;;;5083906;28;20514;-68
2021/12/26 07:59:16;;;;;;;5.27;1.97;;;-1.30;99.90;;;;;;5084585;28;20464;-67
2021/12/26 08:01:46;;;;;;;4.67;2.60;;;-1.30;99.90;;;;;;5085394;28;20499;-68
2021/12/26 08:04:14;;;;;;;4.00;2.30;;;-1.30;99.90;;;;;;5084913;28;20526;-67
2021/12/26 08:06:41;;;;;;;4.13;2.27;;;-1.20;99.90;;;;;;5084208;28;20459;-68
2021/12/26 08:09:09;;;;;;;4.80;2.70;;;-1.30;99.90;;;;;;5083893;28;20503;-65
2021/12/26 08:11:36;;;;;;;3.33;2.23;;;-1.30;99.90;;;;;;5084471;28;20530;-66
2021/12/26 08:14:03;;;;;;;4.63;2.00;;;-1.30;99.90;;;;;;5084737;28;20458;-67
2021/12/26 08:16:30;;;;;;;2.40;2.00;;;-1.30;99.90;;;;;;5084346;28;20547;-69
2021/12/26 08:18:58;;;;;;;4.60;2.17;;;-1.30;99.90;;;;;;5084385;28;20522;-68
2021/12/26 08:21:25;;;;;;;3.90;2.07;;;-1.30;99.90;;;;;;5084787;28;20448;-71
2021/12/26 08:23:52;;;;;;;5.23;2.30;;;-1.20;99.90;;;;;;5083221;28;20459;-67
2021/12/26 08:26:19;;;;;;;7.07;3.53;;;-1.20;99.90;;;;;;5084489;28;20444;-68
2021/12/26 08:28:46;;;;;;;5.70;2.63;;;-1.20;99.90;;;;;;5084565;28;20514;-68
2021/12/26 08:31:15;;;;;;;3.23;2.33;;;-1.20;99.90;;;;;;5084285;28;20439;-68
2021/12/26 08:33:42;;;;;;;3.27;1.97;;;-1.30;99.90;;;;;;5083190;28;20427;-68
2021/12/26 08:36:10;;;;;;;4.07;2.30;;;-1.20;99.90;;;;;;5084364;28;20483;-67
2021/12/26 08:38:38;;;;;;;3.97;2.37;;;-1.30;99.90;;;;;;5083253;28;20539;-67
2021/12/26 08:41:05;;;;;;;5.27;2.87;;;-1.20;99.90;;;;;;5084358;28;20453;-68
2021/12/26 08:43:32;;;;;;;10.23;2.97;;;-1.10;99.90;;;;;;5084845;28;20780;-68
2021/12/26 08:46:00;;;;;;;4.13;2.27;;;-1.10;99.90;;;;;;5084784;28;20477;-66
2021/12/26 08:48:27;;;;;;;6.27;2.40;;;-1.00;99.90;;;;;;5084685;28;20470;-67
2021/12/26 08:50:55;;;;;;;5.23;2.80;;;-1.00;99.90;;;;;;5085071;28;20446;-69
2021/12/26 08:53:25;;;;;;;5.13;2.23;;;-1.10;99.90;;;;;;5083639;28;20444;-69
2021/12/26 08:55:52;;;;;;;3.20;2.70;;;-1.20;99.90;;;;;;5084177;28;20489;-70
2021/12/26 08:58:20;;;;;;;3.50;2.27;;;-1.20;99.90;;;;;;5084332;28;20819;-71
2021/12/26 09:00:47;;;;;;;4.87;2.53;;;-1.20;99.90;;;;;;5085040;28;20443;-71
2021/12/26 09:03:14;;;;;;;4.70;2.17;;;-1.20;99.90;;;;;;5083864;28;20518;-69
2021/12/26 09:05:42;;;;;;;4.07;2.47;;;-1.20;99.90;;;;;;5084671;28;20482;-70
2021/12/26 09:08:10;;;;;;;4.93;2.93;;;-1.20;99.90;;;;;;5083955;28;20473;-68
2021/12/26 09:10:39;;;;;;;4.17;2.17;;;-1.10;99.90;;;;;;5084227;28;20459;-69
2021/12/26 09:13:06;;;;;;;5.90;3.27;;;-1.10;99.90;;;;;;5084663;28;20875;-68
2021/12/26 09:15:34;;;;;;;3.20;2.10;;;-1.10;99.90;;;;;;5084610;28;20454;-70
2021/12/26 09:18:01;;;;;;;4.03;2.27;;;-1.10;99.90;;;;;;5084289;28;20482;-67
2021/12/26 09:20:29;;;;;;;5.60;2.47;;;-1.10;99.90;;;;;;5084808;28;20988;-68
2021/12/26 09:22:56;;;;;;;5.70;2.40;;;-1.10;99.90;;;;;;5083929;28;20509;-68
2021/12/26 09:25:22;;;;;;;3.63;2.07;;;-1.10;99.90;;;;;;5083405;28;20949;-69
2021/12/26 09:27:51;;;;;;;5.47;2.93;;;-1.10;99.90;;;;;;5084230;28;20977;-70
2021/12/26 09:30:18;;;;;;;5.53;2.90;;;-1.00;99.90;;;;;;5084446;28;20522;-67
2021/12/26 09:32:44;;;;;;;3.27;2.40;;;-0.90;99.90;;;;;;5084608;28;20467;-67
2021/12/26 09:35:12;;;;;;;3.43;2.17;;;-0.90;99.90;;;;;;5084311;28;20558;-68
2021/12/26 09:37:39;;;;;;;4.57;2.43;;;-0.80;99.90;;;;;;5084046;28;20483;-64
2021/12/26 09:40:07;;;;;;;4.50;2.97;;;-0.80;99.90;;;;;;5083320;28;20477;-70
2021/12/26 09:42:35;;;;;;;4.17;2.50;;;-0.80;99.90;;;;;;5084609;28;20557;-70
2021/12/26 09:45:04;;;;;;;5.10;2.73;;;-0.90;99.90;;;;;;5084307;28;20435;-72
2021/12/26 09:47:31;;;;;;;5.83;2.17;;;-1.00;99.90;;;;;;5084355;28;20439;-69
2021/12/26 09:49:58;;;;;;;6.33;2.97;;;-1.10;99.90;;;;;;5084151;28;20767;-71
2021/12/26 09:52:25;;;;;;;5.13;2.40;;;-0.10;99.90;;;;;;5084469;28;20538;-71
2021/12/26 09:54:52;;;;;;;4.63;2.43;;;-1.10;99.90;;;;;;5083152;28;20506;-70
2021/12/26 09:57:18;;;;;;;4.23;2.57;;;-1.20;99.90;;;;;;5084308;28;20863;-69
2021/12/26 09:59:48;;;;;;;4.77;2.70;;;-1.10;99.90;;;;;;5084018;28;20811;-66
2021/12/26 10:02:18;;;;;;;6.33;3.03;;;-1.10;99.90;;;;;;5084479;28;20439;-66
2021/12/26 10:04:46;;;;;;;5.80;2.77;;;-1.10;99.90;;;;;;5083680;28;20443;-69
2021/12/26 10:07:15;;;;;;;4.80;2.50;;;-1.00;99.90;;;;;;5084312;28;20954;-67
2021/12/26 10:09:43;;;;;;;3.43;2.03;;;-1.00;99.90;;;;;;5083262;28;20459;-70
2021/12/26 10:12:13;;;;;;;7.50;2.83;;;-1.00;99.90;;;;;;5083692;28;20447;-71
2021/12/26 10:14:43;;;;;;;4.30;2.20;;;-1.00;99.90;;;;;;5083702;28;20448;-69
2021/12/26 10:17:12;;;;;;;4.77;2.87;;;-1.00;99.90;;;;;;5087829;28;20600;-70
2021/12/26 10:19:43;;;;;;;5.00;3.00;;;-1.00;99.90;;;;;;5087298;28;20523;-69
2021/12/26 10:22:11;;;;;;;7.03;3.23;;;-1.00;99.90;;;;;;5087877;28;20473;-69
2021/12/26 10:24:40;;;;;;;4.10;2.43;;;-1.00;99.90;;;;;;5086150;28;20454;-68
2021/12/26 10:27:08;;;;;;;6.87;3.13;;;-0.90;99.90;;;;;;5087384;28;20467;-68
2021/12/26 10:29:38;;;;;;;7.87;3.00;;;-0.90;99.90;;;;;;5087421;28;20461;-67
2021/12/26 10:32:09;;;;;;;4.97;3.10;;;-0.90;99.90;;;;;;5087712;28;20465;-68
2021/12/26 10:34:40;;;;;;;3.97;2.43;;;-0.90;99.90;;;;;;5087184;28;20467;-66
2021/12/26 10:37:10;;;;;;;4.67;2.70;;;-1.00;99.90;;;;;;5087417;28;20493;-68
2021/12/26 10:39:39;;;;;;;3.53;2.57;;;-1.00;99.90;;;;;;5085597;28;20487;-68
2021/12/26 10:42:09;;;;;;;4.17;2.50;;;-1.00;99.90;;;;;;5083577;28;20518;-67
2021/12/26 10:44:40;;;;;;;8.30;3.30;;;-0.90;99.90;;;;;;5087189;28;20868;-68
2021/12/26 10:47:09;;;;;;;15.73;6.47;;;-0.90;99.90;;;;;;5086789;28;20518;-68
2021/12/26 10:49:40;;;;;;;9.80;5.43;;;-0.90;99.90;;;;;;5086470;28;20447;-67
2021/12/26 10:52:13;;;;;;;5.30;3.53;;;-0.80;99.90;;;;;;5086999;28;20866;-67
2021/12/26 10:54:43;;;;;;;4.00;2.73;;;-0.80;99.90;;;;;;5085057;28;20482;-66
2021/12/26 10:57:19;;;;;;;7.73;2.87;;;-0.80;99.90;;;;;;5084940;28;20471;-66
2021/12/26 10:59:47;;;;;;;5.13;2.97;;;-0.80;99.90;;;;;;5082665;28;20477;-67
2021/12/26 11:02:26;;;;;;;6.90;3.17;;;-0.80;99.90;;;;;;5085510;28;20467;-70
2021/12/26 11:05:00;;;;;;;3.50;2.07;;;-0.80;99.90;;;;;;5085141;28;20463;-68
2021/12/26 11:07:27;;;;;;;2.97;2.00;;;-0.80;99.90;;;;;;5083586;28;20428;-68
2021/12/26 11:10:07;;;;;;;4.57;2.50;;;-0.80;99.90;;;;;;5084084;28;20500;-67
2021/12/26 11:12:40;;;;;;;20.27;8.30;;;-0.70;99.90;;;;;;5084096;28;20455;-68
2021/12/26 11:15:09;;;;;;;5.63;2.33;;;-0.80;99.90;;;;;;5083558;28;20448;-69
2021/12/26 11:17:38;;;;;;;7.30;2.67;;;-0.80;99.90;;;;;;5085840;28;20475;-69
2021/12/26 11:20:08;;;;;;;35.30;6.20;;;-0.70;99.90;;;;;;5086276;28;20511;-68
2021/12/26 11:22:35;;;;;;;24.10;8.23;;;-0.70;99.90;;;;;;5086496;28;20526;-67
2021/12/26 11:25:02;;;;;;;9.87;4.30;;;-0.70;99.90;;;;;;5085025;28;20491;-67
2021/12/26 11:27:28;;;;;;;5.30;3.03;;;-0.70;99.90;;;;;;5085697;28;20507;-66
2021/12/26 11:29:56;;;;;;;3.93;3.10;;;-0.70;99.90;;;;;;5085834;28;20444;-67
2021/12/26 11:32:26;;;;;;;4.70;3.13;;;-0.60;99.90;;;;;;5086532;28;20471;-68
2021/12/26 11:34:54;;;;;;;4.63;2.90;;;-0.60;99.90;;;;;;5086048;28;20493;-69
2021/12/26 11:37:23;;;;;;;3.97;2.27;;;-0.60;99.90;;;;;;5086081;28;20978;-69
2021/12/26 11:39:52;;;;;;;4.60;3.17;;;-0.50;99.90;;;;;;5084807;28;20873;-67
2021/12/26 11:42:51;;;;;;;7.43;2.93;;;-0.50;99.90;;;;;;5083748;28;20594;-68
2021/12/26 11:45:23;;;;;;;3.80;2.30;;;-0.40;99.90;;;;;;5051482;28;20942;-68
2021/12/26 11:48:28;;;;;;;6.33;2.87;;;-0.40;99.90;;;;;;5085166;28;20420;-67
2021/12/26 11:51:08;;;;;;;7.00;2.67;;;-0.40;99.90;;;;;;5083058;28;20717;-68
2021/12/26 11:53:54;;;;;;;5.23;2.77;;;-0.50;99.90;;;;;;5079812;28;20439;-68
2021/12/26 11:56:35;;;;;;;4.90;2.97;;;-0.60;99.90;;;;;;5084988;28;20439;-69
2021/12/26 11:59:14;;;;;;;6.97;2.97;;;-0.70;99.90;;;;;;5085355;28;20511;-65
2021/12/26 12:01:44;;;;;;;4.10;2.53;;;-0.70;99.90;;;;;;5085307;28;20435;-67
2021/12/26 12:04:15;;;;;;;6.60;2.80;;;-0.70;99.90;;;;;;5085345;28;20522;-66
2021/12/26 12:06:42;;;;;;;3.27;2.20;;;-0.60;99.90;;;;;;5085723;28;20539;-67
2021/12/26 12:09:27;;;;;;;6.33;2.63;;;-0.60;99.90;;;;;;5084710;28;20564;-67
2021/12/26 12:12:01;;;;;;;4.27;2.37;;;-0.60;99.90;;;;;;5083597;28;20461;-68
2021/12/26 12:14:46;;;;;;;3.83;2.03;;;-0.70;99.90;;;;;;5085142;28;20462;-66
2021/12/26 12:17:18;;;;;;;4.43;2.50;;;-0.60;99.90;;;;;;5085250;28;20419;-67
2021/12/26 12:20:08;;;;;;;6.47;3.03;;;-0.60;99.90;;;;;;5084901;28;20457;-66
2021/12/26 12:22:35;;;;;;;5.30;2.67;;;-0.60;99.90;;;;;;5084831;28;20467;-67
2021/12/26 12:25:31;;;;;;;4.33;2.50;;;-0.50;99.90;;;;;;5083610;28;20503;-65
2021/12/26 12:28:11;;;;;;;7.00;3.13;;;-0.40;99.90;;;;;;5082826;28;20423;-64
2021/12/26 12:30:39;;;;;;;4.83;2.70;;;-0.40;99.90;;;;;;5083015;28;20961;-65
2021/12/26 12:33:15;;;;;;;6.17;2.47;;;-0.40;99.90;;;;;;5084312;28;20507;-64
2021/12/26 12:35:54;;;;;;;10.47;4.53;;;-0.40;99.90;;;;;;5083088;28;20440;-64
2021/12/26 12:38:30;;;;;;;5.83;4.53;;;-0.40;99.90;;;;;;5082206;28;20479;-65
2021/12/26 12:40:58;;;;;;;4.53;2.53;;;-0.40;99.90;;;;;;5083601;28;20537;-65
2021/12/26 12:43:28;;;;;;;6.13;2.50;;;-0.40;99.90;;;;;;5082468;28;20438;-65
2021/12/26 12:46:04;;;;;;;4.33;2.40;;;-0.30;99.90;;;;;;5084132;28;20499;-65
2021/12/26 12:48:32;;;;;;;4.07;2.70;;;-0.30;99.90;;;;;;5083121;28;20427;-64
2021/12/26 12:51:01;;;;;;;7.40;3.57;;;-0.30;99.90;;;;;;5084407;28;20459;-65
2021/12/26 12:53:43;;;;;;;2.83;2.40;;;-0.30;99.90;;;;;;5081135;28;20503;-65
2021/12/26 12:56:33;;;;;;;6.67;3.40;;;-0.20;99.90;;;;;;5082471;28;20534;-65
2021/12/26 12:59:33;;;;;;;5.87;2.73;;;-0.20;99.90;;;;;;5082111;28;20475;-64